Time;durP1;ratioP1;P1;durP2;ratioP2;P2;SDS_P1;SDS_P2;PMS_P1;PMS_P2;Temp;Humidity;BMP_temperature;BMP_pressure;BME280_temperature;BME280_humidity;BME280_pressure;Samples;Min_cycle;Max_cycle;Signal;HPM_P1;HPM_P2
2021/04/26 00:02:55;;;;;;;4.05;1.92;;;12.60;45.30;;;;;;5102274;28;28025;-53
2021/04/26 00:06:09;;;;;;;7.63;2.45;;;12.60;45.20;;;;;;5105891;28;27347;-54
2021/04/26 00:09:18;;;;;;;4.40;2.00;;;12.50;45.40;;;;;;5101638;27;27442;-53
2021/04/26 00:12:29;;;;;;;4.18;2.17;;;12.40;45.60;;;;;;5105292;28;27478;-53
2021/04/26 00:15:43;;;;;;;4.75;2.20;;;12.40;45.20;;;;;;5103962;28;27861;-54
2021/04/26 00:18:54;;;;;;;6.57;2.55;;;12.40;45.10;;;;;;5101923;28;27339;-54
2021/04/26 00:22:08;;;;;;;2.53;1.65;;;12.50;45.20;;;;;;5103100;28;27523;-52
2021/04/26 00:25:08;;;;;;;3.80;1.70;;;12.40;44.80;;;;;;5104522;28;27446;-52
2021/04/26 00:28:22;;;;;;;5.53;2.20;;;12.40;45.40;;;;;;5104737;28;27388;-54
2021/04/26 00:31:49;;;;;;;7.20;2.45;;;12.40;45.20;;;;;;5104839;28;27423;-53
2021/04/26 00:35:24;;;;;;;6.85;1.98;;;12.40;45.40;;;;;;5105411;28;27427;-53
2021/04/26 00:39:09;;;;;;;8.63;2.17;;;12.30;45.30;;;;;;5104007;28;27359;-55
2021/04/26 00:42:15;;;;;;;6.85;2.70;;;12.30;45.30;;;;;;5101501;28;27303;-51
2021/04/26 00:45:15;;;;;;;6.53;2.10;;;12.20;45.50;;;;;;5104654;28;27336;-55
2021/04/26 00:48:29;;;;;;;4.40;2.40;;;12.20;45.70;;;;;;5103425;28;27493;-53
2021/04/26 00:51:42;;;;;;;3.97;1.90;;;12.20;45.80;;;;;;5104946;28;27398;-55
2021/04/26 00:54:28;;;;;;;5.88;2.28;;;12.10;46.10;;;;;;5104423;28;27403;-54
2021/04/26 00:57:55;;;;;;;5.63;2.30;;;12.10;46.40;;;;;;5104514;28;27434;-54
2021/04/26 01:01:13;;;;;;;5.38;2.05;;;12.00;46.50;;;;;;5104661;28;27378;-53
2021/04/26 01:04:27;;;;;;;6.15;2.20;;;12.00;46.70;;;;;;5103255;28;27350;-55
2021/04/26 01:07:41;;;;;;;4.93;2.20;;;11.90;46.60;;;;;;5100034;28;27440;-51
2021/04/26 01:11:09;;;;;;;5.63;2.28;;;11.90;46.80;;;;;;5100167;28;27607;-54
2021/04/26 01:14:33;;;;;;;3.65;1.90;;;11.90;46.90;;;;;;5100219;28;27415;-54
2021/04/26 01:17:50;;;;;;;4.15;2.22;;;11.80;47.10;;;;;;5101260;28;27319;-54
2021/04/26 01:20:56;;;;;;;4.38;2.33;;;11.80;47.20;;;;;;5103281;27;27933;-52
2021/04/26 01:24:14;;;;;;;3.53;2.10;;;11.80;47.30;;;;;;5104205;28;27382;-52
2021/04/26 01:27:50;;;;;;;4.90;1.88;;;11.70;47.60;;;;;;5079526;27;27524;-55
2021/04/26 01:31:04;;;;;;;2.88;1.95;;;11.70;47.90;;;;;;5104057;28;27455;-54
2021/04/26 01:34:27;;;;;;;3.35;1.90;;;11.60;48.40;;;;;;5087717;28;27452;-53
2021/04/26 01:38:14;;;;;;;4.28;1.90;;;11.50;48.50;;;;;;5102292;28;27349;-54
2021/04/26 01:41:47;;;;;;;5.25;2.10;;;11.40;49.00;;;;;;5102636;28;27585;-54
2021/04/26 01:45:16;;;;;;;5.38;2.38;;;11.30;49.00;;;;;;5088296;28;27431;-54
2021/04/26 01:49:03;;;;;;;5.60;2.20;;;11.30;49.30;;;;;;5101479;28;27448;-54
2021/04/26 01:52:23;;;;;;;3.83;2.25;;;11.20;49.60;;;;;;5099345;28;27403;-53
2021/04/26 01:55:29;;;;;;;5.22;2.78;;;11.10;49.70;;;;;;5099454;28;27420;-54
2021/04/26 01:58:57;;;;;;;6.28;2.40;;;11.10;50.00;;;;;;5103854;28;27457;-54
2021/04/26 02:02:43;;;;;;;4.55;2.30;;;11.00;50.00;;;;;;5100174;28;27821;-52
2021/04/26 02:06:16;;;;;;;5.65;2.42;;;11.00;50.30;;;;;;5100003;28;27436;-53
2021/04/26 02:09:56;;;;;;;6.10;2.50;;;10.90;50.50;;;;;;5091087;28;27441;-55
2021/04/26 02:12:50;;;;;;;3.53;2.25;;;10.80;50.60;;;;;;5099229;28;27419;-52
2021/04/26 02:16:04;;;;;;;6.53;2.25;;;10.80;50.90;;;;;;5099464;28;27381;-52
2021/04/26 02:18:52;;;;;;;9.32;2.50;;;10.70;50.90;;;;;;5099834;28;27359;-48
2021/04/26 02:22:07;;;;;;;11.27;2.42;;;10.60;51.10;;;;;;5099051;28;27344;-51
2021/04/26 02:25:31;;;;;;;6.13;2.70;;;10.60;51.30;;;;;;5099980;28;27418;-51
2021/04/26 02:28:32;;;;;;;4.18;2.05;;;10.50;51.40;;;;;;5103149;28;27390;-53
2021/04/26 02:32:02;;;;;;;4.25;2.45;;;10.40;51.50;;;;;;5098683;28;27451;-53
2021/04/26 02:35:49;;;;;;;6.78;2.35;;;10.30;51.80;;;;;;5102500;28;27584;-53
2021/04/26 02:39:16;;;;;;;4.63;2.20;;;10.30;52.00;;;;;;5072152;28;27473;-53
2021/04/26 02:42:30;;;;;;;6.28;2.17;;;10.20;52.10;;;;;;5102002;28;27856;-52
2021/04/26 02:45:56;;;;;;;5.95;2.78;;;10.10;52.20;;;;;;5103062;28;27470;-54
2021/04/26 02:49:11;;;;;;;4.35;2.38;;;10.10;52.30;;;;;;5101908;28;27654;-51
2021/04/26 02:52:26;;;;;;;4.78;2.40;;;10.10;52.30;;;;;;5098877;28;27431;-52
2021/04/26 02:55:52;;;;;;;6.47;2.80;;;10.00;52.40;;;;;;5099055;28;27829;-54
2021/04/26 02:59:20;;;;;;;3.58;2.30;;;10.00;52.60;;;;;;5103221;28;27481;-51
2021/04/26 03:03:11;;;;;;;6.43;3.05;;;9.90;52.60;;;;;;5100702;28;27621;-54
2021/04/26 03:06:40;;;;;;;7.15;2.40;;;9.90;52.80;;;;;;5098768;28;26965;-52
2021/04/26 03:10:42;;;;;;;2.88;2.28;;;9.90;52.90;;;;;;5099376;28;27469;-53
2021/04/26 03:14:04;;;;;;;5.25;2.75;;;9.80;53.10;;;;;;5100576;28;27447;-50
2021/04/26 03:17:20;;;;;;;5.07;2.95;;;9.80;53.00;;;;;;5098934;28;27467;-51
2021/04/26 03:20:49;;;;;;;4.53;2.80;;;9.80;53.00;;;;;;5099207;28;27426;-53
2021/04/26 03:24:06;;;;;;;6.03;3.20;;;9.80;53.00;;;;;;5098429;28;27923;-54
2021/04/26 03:27:12;;;;;;;7.88;3.03;;;9.70;53.30;;;;;;5098658;28;27493;-54
2021/04/26 03:30:30;;;;;;;4.90;2.67;;;9.70;53.30;;;;;;5084336;28;27506;-52
2021/04/26 03:34:05;;;;;;;7.13;2.67;;;9.60;53.20;;;;;;5039700;28;27373;-52
2021/04/26 03:37:08;;;;;;;4.28;2.67;;;9.60;54.10;;;;;;5083716;28;27439;-51
2021/04/26 03:40:24;;;;;;;4.68;3.33;;;9.50;53.50;;;;;;5098603;28;27408;-51
2021/04/26 03:43:39;;;;;;;7.68;3.22;;;9.50;53.70;;;;;;5099184;28;27493;-53
2021/04/26 03:46:58;;;;;;;6.60;2.70;;;9.40;53.90;;;;;;5101663;28;27430;-50
2021/04/26 03:50:18;;;;;;;5.03;3.20;;;9.40;54.00;;;;;;5104954;28;27853;-53
2021/04/26 03:54:05;;;;;;;7.32;3.45;;;9.30;54.00;;;;;;5105184;28;27367;-52
2021/04/26 03:57:21;;;;;;;8.18;3.13;;;9.30;54.10;;;;;;5103825;28;27458;-50
2021/04/26 04:00:25;;;;;;;7.88;2.90;;;9.30;54.30;;;;;;5101890;28;26936;-53
2021/04/26 04:03:40;;;;;;;5.88;3.42;;;9.20;54.30;;;;;;5102227;28;27469;-54
2021/04/26 04:07:10;;;;;;;5.80;2.85;;;9.20;54.50;;;;;;5104871;28;27409;-51
2021/04/26 04:11:05;;;;;;;8.27;2.83;;;9.20;54.50;;;;;;5106057;28;27428;-50
2021/04/26 04:14:39;;;;;;;8.02;3.17;;;9.10;54.70;;;;;;5105371;28;27394;-54
2021/04/26 04:17:43;;;;;;;11.70;2.97;;;9.00;54.80;;;;;;5102801;28;27416;-54
2021/04/26 04:20:44;;;;;;;9.98;3.58;;;9.00;55.10;;;;;;5106962;28;27402;-53
2021/04/26 04:23:59;;;;;;;6.07;3.08;;;8.90;55.00;;;;;;5102861;28;27506;-53
2021/04/26 04:27:14;;;;;;;7.50;3.70;;;8.80;55.20;;;;;;5106703;28;27411;-49
2021/04/26 04:30:15;;;;;;;6.85;2.60;;;8.80;55.40;;;;;;5102544;28;27422;-52
2021/04/26 04:33:48;;;;;;;4.68;2.92;;;8.80;55.50;;;;;;5106307;28;27378;-54
2021/04/26 04:37:22;;;;;;;7.18;3.25;;;8.70;55.60;;;;;;5106168;28;27461;-49
2021/04/26 04:40:47;;;;;;;5.78;3.03;;;8.70;55.60;;;;;;5063760;28;27526;-53
2021/04/26 04:44:07;;;;;;;9.52;3.00;;;8.70;55.80;;;;;;5047422;28;27423;-52
2021/04/26 04:47:20;;;;;;;5.18;3.35;;;8.70;55.70;;;;;;5060796;28;27353;-50
2021/04/26 04:50:21;;;;;;;6.90;3.45;;;8.70;55.70;;;;;;5064038;28;27403;-53
2021/04/26 04:53:09;;;;;;;7.00;3.60;;;8.70;55.80;;;;;;5048922;28;27521;-51
2021/04/26 04:56:09;;;;;;;5.28;2.58;;;8.70;55.80;;;;;;5049889;28;27412;-51
2021/04/26 04:59:27;;;;;;;10.30;4.07;;;8.80;55.90;;;;;;5048879;28;27384;-53
2021/04/26 05:02:33;;;;;;;6.38;3.60;;;8.80;55.90;;;;;;5060190;28;27443;-53
2021/04/26 05:06:06;;;;;;;6.53;3.40;;;8.80;56.10;;;;;;5063457;28;27485;-54
2021/04/26 05:10:06;;;;;;;8.57;3.85;;;8.70;56.20;;;;;;5045706;28;27439;-50
2021/04/26 05:13:54;;;;;;;7.88;3.58;;;8.70;56.30;;;;;;5090190;27;27351;-52
2021/04/26 05:17:00;;;;;;;10.35;4.97;;;8.60;56.60;;;;;;5102610;28;27422;-50
2021/04/26 05:20:00;;;;;;;6.55;3.70;;;8.60;57.00;;;;;;5104056;28;27586;-52
2021/04/26 05:23:05;;;;;;;8.65;3.72;;;8.60;56.90;;;;;;5087384;28;27940;-51
2021/04/26 05:26:17;;;;;;;6.78;3.70;;;8.60;57.00;;;;;;5087570;28;27391;-54
2021/04/26 05:29:22;;;;;;;8.52;4.18;;;8.60;57.20;;;;;;5104408;28;27544;-53
2021/04/26 05:32:26;;;;;;;4.35;3.35;;;8.60;57.30;;;;;;5101835;28;27414;-51
2021/04/26 05:35:24;;;;;;;6.72;4.30;;;8.60;57.30;;;;;;5103978;28;27852;-52
2021/04/26 05:38:47;;;;;;;16.33;5.65;;;8.70;57.50;;;;;;5087913;28;27493;-51
2021/04/26 05:41:53;;;;;;;14.32;5.53;;;8.80;57.50;;;;;;5101263;28;27552;-50
2021/04/26 05:44:40;;;;;;;8.90;5.22;;;8.80;57.40;;;;;;5087073;28;27344;-54
2021/04/26 05:48:22;;;;;;;9.40;5.68;;;8.90;57.60;;;;;;5102829;28;27389;-53
2021/04/26 05:51:35;;;;;;;11.68;5.30;;;9.00;57.40;;;;;;5105507;28;27426;-51
2021/04/26 05:54:48;;;;;;;8.82;5.60;;;9.10;57.50;;;;;;5102911;28;27481;-54
2021/04/26 05:58:04;;;;;;;8.23;4.93;;;9.10;57.70;;;;;;5103857;28;27451;-51
2021/04/26 06:01:04;;;;;;;11.63;5.78;;;9.20;58.40;;;;;;5101656;28;27965;-54
2021/04/26 06:04:19;;;;;;;10.57;5.10;;;9.20;58.00;;;;;;5105308;28;27342;-52
2021/04/26 06:07:32;;;;;;;9.32;5.03;;;9.30;58.10;;;;;;5101435;28;27319;-54
2021/04/26 06:11:00;;;;;;;8.18;4.35;;;9.30;58.10;;;;;;5105040;28;27408;-55
2021/04/26 06:14:17;;;;;;;11.75;5.22;;;9.40;57.90;;;;;;5103674;28;27476;-53
2021/04/26 06:17:44;;;;;;;12.15;5.45;;;9.60;58.20;;;;;;5104483;28;27327;-52
2021/04/26 06:21:09;;;;;;;9.13;5.32;;;9.70;58.20;;;;;;5104817;28;27431;-55
2021/04/26 06:24:08;;;;;;;8.82;4.75;;;9.80;57.80;;;;;;5104679;28;27677;-53
2021/04/26 06:27:22;;;;;;;7.47;4.70;;;10.00;57.60;;;;;;5104982;28;27391;-54
2021/04/26 06:30:47;;;;;;;7.95;4.85;;;10.30;56.50;;;;;;5104731;28;27431;-53
2021/04/26 06:34:02;;;;;;;10.23;4.60;;;10.90;54.20;;;;;;5101460;28;27449;-53
2021/04/26 06:37:30;;;;;;;10.27;4.85;;;11.50;54.10;;;;;;5104390;28;27458;-55
2021/04/26 06:41:02;;;;;;;9.68;4.28;;;12.10;52.50;;;;;;5104426;28;27873;-53
2021/04/26 06:44:07;;;;;;;8.40;4.97;;;12.60;51.40;;;;;;5104152;28;27497;-55
2021/04/26 06:47:21;;;;;;;11.88;4.55;;;13.10;50.00;;;;;;5104865;28;27407;-56
2021/04/26 06:50:27;;;;;;;10.50;3.63;;;13.50;49.20;;;;;;5101530;28;26845;-56
2021/04/26 06:53:48;;;;;;;7.72;4.20;;;13.90;48.80;;;;;;5100561;28;28067;-57
2021/04/26 06:57:02;;;;;;;8.10;4.53;;;14.20;47.60;;;;;;5104320;28;27431;-56
2021/04/26 07:00:23;;;;;;;7.20;4.13;;;14.50;47.10;;;;;;5104641;28;27315;-56
2021/04/26 07:03:50;;;;;;;8.23;4.18;;;14.70;46.50;;;;;;5101942;28;27422;-56
2021/04/26 07:07:11;;;;;;;8.95;3.78;;;15.00;46.10;;;;;;5104458;28;28054;-56
2021/04/26 07:10:24;;;;;;;9.57;4.63;;;15.30;46.30;;;;;;5104114;28;27453;-57
2021/04/26 07:13:26;;;;;;;12.90;4.47;;;15.60;46.00;;;;;;5104473;28;27481;-57
2021/04/26 07:16:31;;;;;;;6.78;4.15;;;16.00;46.40;;;;;;5104459;28;27370;-56
2021/04/26 07:19:59;;;;;;;7.45;4.03;;;16.30;43.80;;;;;;5106169;27;27391;-56
2021/04/26 07:23:20;;;;;;;6.03;4.35;;;16.50;42.60;;;;;;5108400;28;27324;-55
2021/04/26 07:26:47;;;;;;;6.70;4.10;;;16.70;43.20;;;;;;5107763;28;27359;-56
2021/04/26 07:29:48;;;;;;;7.22;3.85;;;16.90;42.80;;;;;;5107869;28;27422;-56
2021/04/26 07:32:59;;;;;;;5.60;4.13;;;17.00;41.40;;;;;;5077885;28;27948;-56
2021/04/26 07:35:59;;;;;;;7.50;4.47;;;17.20;42.00;;;;;;5105810;28;27553;-56
2021/04/26 07:39:15;;;;;;;6.22;4.00;;;17.40;41.70;;;;;;5106995;28;27371;-56
2021/04/26 07:42:28;;;;;;;7.75;4.70;;;17.50;40.40;;;;;;5107168;28;27320;-56
2021/04/26 07:45:40;;;;;;;8.43;4.20;;;17.60;40.30;;;;;;5107325;28;27411;-56
2021/04/26 07:48:52;;;;;;;10.60;4.32;;;17.90;40.20;;;;;;5105493;28;27398;-56
2021/04/26 07:52:05;;;;;;;6.32;3.95;;;18.20;39.80;;;;;;5105881;28;27339;-56
2021/04/26 07:55:33;;;;;;;8.15;4.25;;;18.50;39.20;;;;;;5107563;28;27332;-57
2021/04/26 07:58:45;;;;;;;7.20;4.20;;;18.70;38.80;;;;;;5106808;28;27390;-57
2021/04/26 08:01:59;;;;;;;9.70;4.72;;;19.10;37.80;;;;;;5106935;28;27398;-57
2021/04/26 08:05:26;;;;;;;7.07;3.47;;;19.50;37.70;;;;;;5103389;28;27348;-57
2021/04/26 08:08:47;;;;;;;9.75;3.97;;;19.80;38.20;;;;;;5106619;28;27354;-57
2021/04/26 08:12:15;;;;;;;6.10;3.78;;;20.20;36.60;;;;;;5106927;28;27432;-57
2021/04/26 08:15:24;;;;;;;8.48;3.80;;;20.60;35.10;;;;;;5107113;28;27473;-57
2021/04/26 08:18:38;;;;;;;8.38;3.97;;;20.80;34.60;;;;;;5107140;28;27411;-57
2021/04/26 08:21:57;;;;;;;5.20;3.47;;;21.00;35.70;;;;;;5102888;28;27438;-57
2021/04/26 08:25:11;;;;;;;7.15;3.78;;;21.10;35.90;;;;;;5106724;28;27957;-57
2021/04/26 08:28:37;;;;;;;5.88;3.88;;;21.20;34.80;;;;;;5106910;28;27461;-58
2021/04/26 08:31:51;;;;;;;5.00;3.63;;;21.40;35.10;;;;;;5105911;28;27387;-58
2021/04/26 08:35:11;;;;;;;6.72;4.75;;;21.40;34.50;;;;;;5105585;28;27457;-57
2021/04/26 08:38:16;;;;;;;6.35;3.70;;;21.40;34.10;;;;;;5106476;28;27348;-58
2021/04/26 08:41:30;;;;;;;7.32;3.67;;;21.50;35.10;;;;;;5105741;28;27389;-58
2021/04/26 08:44:44;;;;;;;7.78;4.93;;;21.60;34.80;;;;;;5106742;28;27504;-58
2021/04/26 08:47:45;;;;;;;8.63;4.32;;;21.60;35.10;;;;;;5102185;28;27393;-57
2021/04/26 08:51:10;;;;;;;7.28;3.35;;;21.80;34.60;;;;;;5106256;28;27449;-58
2021/04/26 08:54:37;;;;;;;7.60;4.20;;;21.90;35.10;;;;;;5105977;28;27449;-58
2021/04/26 08:58:16;;;;;;;8.68;3.42;;;21.90;34.00;;;;;;5106175;28;27512;-58
2021/04/26 09:01:30;;;;;;;6.35;3.30;;;22.10;34.80;;;;;;5104394;28;27339;-58
2021/04/26 09:04:47;;;;;;;8.02;3.95;;;22.20;33.20;;;;;;5106047;28;27352;-58
2021/04/26 09:08:03;;;;;;;10.45;3.67;;;22.30;33.30;;;;;;5077784;28;27504;-58
2021/04/26 09:10:55;;;;;;;11.15;4.20;;;22.50;35.50;;;;;;5106296;28;27478;-58
2021/04/26 09:14:08;;;;;;;10.80;4.00;;;22.70;34.30;;;;;;5106218;28;27373;-59
2021/04/26 09:17:29;;;;;;;9.68;4.35;;;23.00;34.50;;;;;;5104337;28;27411;-58
2021/04/26 09:20:19;;;;;;;9.27;3.08;;;23.20;34.00;;;;;;5106067;28;27461;-59
2021/04/26 09:24:06;;;;;;;6.85;3.30;;;23.30;35.20;;;;;;5105766;28;27339;-59
2021/04/26 09:27:06;;;;;;;7.63;3.85;;;23.60;33.60;;;;;;5105698;28;27327;-59
2021/04/26 09:30:34;;;;;;;4.80;3.00;;;23.80;33.40;;;;;;5105448;28;27435;-59
2021/04/26 09:33:29;;;;;;;9.45;3.50;;;24.00;37.40;;;;;;5105159;28;27558;-59
2021/04/26 09:36:59;;;;;;;7.30;3.80;;;24.20;31.70;;;;;;5105822;28;27372;-60
2021/04/26 09:40:32;;;;;;;5.10;3.35;;;24.10;31.20;;;;;;5102192;28;27454;-59
2021/04/26 09:44:03;;;;;;;7.30;3.45;;;24.00;32.20;;;;;;5105222;28;27390;-60
2021/04/26 09:47:36;;;;;;;7.90;4.00;;;24.00;31.50;;;;;;5105319;28;27458;-59
2021/04/26 09:50:50;;;;;;;6.07;3.58;;;24.00;32.30;;;;;;5105363;28;26844;-60
2021/04/26 09:53:45;;;;;;;8.63;3.75;;;24.00;33.80;;;;;;5104997;28;27379;-60
2021/04/26 09:56:50;;;;;;;8.68;4.32;;;24.10;33.60;;;;;;5105240;28;27638;-59
2021/04/26 09:59:57;;;;;;;9.25;3.78;;;24.40;33.10;;;;;;5105418;28;27415;-60
2021/04/26 10:02:58;;;;;;;6.55;3.20;;;24.50;32.60;;;;;;5104871;28;27402;-60
2021/04/26 10:06:12;;;;;;;5.60;3.65;;;24.60;31.50;;;;;;5104370;28;27411;-60
2021/04/26 10:09:27;;;;;;;6.40;3.28;;;24.60;31.30;;;;;;5105072;28;27412;-59
2021/04/26 10:12:42;;;;;;;5.85;3.25;;;24.50;31.40;;;;;;5105060;28;27535;-60
2021/04/26 10:15:58;;;;;;;5.75;3.22;;;24.50;31.80;;;;;;5101764;28;27426;-60
2021/04/26 10:19:00;;;;;;;6.68;3.38;;;24.50;30.20;;;;;;5104682;28;27457;-60
2021/04/26 10:22:33;;;;;;;8.93;3.47;;;24.30;30.00;;;;;;5104245;28;27403;-60
2021/04/26 10:25:36;;;;;;;8.90;3.75;;;24.20;34.00;;;;;;5104336;28;27431;-60
2021/04/26 10:28:32;;;;;;;6.35;3.28;;;24.20;31.70;;;;;;5088570;28;27467;-60
2021/04/26 10:31:56;;;;;;;5.68;3.42;;;24.20;31.80;;;;;;5104982;28;27454;-60
2021/04/26 10:34:52;;;;;;;7.38;3.35;;;24.10;31.80;;;;;;5104702;28;27934;-60
2021/04/26 10:38:34;;;;;;;6.03;3.60;;;24.00;33.40;;;;;;5104434;28;27590;-60
2021/04/26 10:41:55;;;;;;;5.82;3.35;;;24.10;37.30;;;;;;5104435;28;27498;-60
2021/04/26 10:44:47;;;;;;;5.35;3.17;;;24.20;36.50;;;;;;5104605;28;27317;-60
2021/04/26 10:48:10;;;;;;;9.05;3.13;;;24.30;37.20;;;;;;5103799;28;27398;-60
2021/04/26 10:51:21;;;;;;;6.90;3.38;;;24.30;33.10;;;;;;5104047;28;27411;-60
2021/04/26 10:54:40;;;;;;;6.72;3.70;;;24.20;31.20;;;;;;5110146;27;27372;-60
2021/04/26 10:57:38;;;;;;;6.38;3.33;;;24.00;31.00;;;;;;5111216;28;27485;-60
2021/04/26 11:00:28;;;;;;;5.38;3.00;;;23.90;35.50;;;;;;5111125;28;27430;-60
2021/04/26 11:03:25;;;;;;;6.43;3.42;;;24.00;34.40;;;;;;5111086;28;27412;-60
2021/04/26 11:07:04;;;;;;;5.18;3.25;;;23.90;33.60;;;;;;5110152;28;27423;-60
2021/04/26 11:10:28;;;;;;;4.95;3.30;;;23.90;34.90;;;;;;5110806;28;27560;-60
2021/04/26 11:13:36;;;;;;;7.07;2.92;;;24.00;33.80;;;;;;5110541;28;27462;-60
2021/04/26 11:17:24;;;;;;;5.85;3.30;;;23.90;37.00;;;;;;5107606;28;27478;-59
2021/04/26 11:20:33;;;;;;;5.28;3.58;;;24.00;38.70;;;;;;5110404;28;27453;-58
2021/04/26 11:24:02;;;;;;;8.45;3.65;;;23.90;29.50;;;;;;5106842;28;27480;-58
2021/04/26 11:27:14;;;;;;;13.80;3.85;;;23.90;28.00;;;;;;5110822;28;27421;-57
2021/04/26 11:30:37;;;;;;;7.07;3.22;;;23.80;28.40;;;;;;5106741;28;27332;-56
2021/04/26 11:33:25;;;;;;;10.88;3.25;;;23.60;27.80;;;;;;5111116;28;27445;-56
2021/04/26 11:36:12;;;;;;;9.68;3.55;;;23.40;26.80;;;;;;5110268;28;27340;-57
2021/04/26 11:39:41;;;;;;;4.82;2.90;;;23.40;29.00;;;;;;5110651;28;27410;-57
2021/04/26 11:42:49;;;;;;;4.65;2.90;;;23.40;30.90;;;;;;5109597;28;27419;-57
2021/04/26 11:46:16;;;;;;;5.60;3.55;;;23.50;33.30;;;;;;5109351;28;27375;-57
2021/04/26 11:49:45;;;;;;;4.38;3.40;;;23.50;29.70;;;;;;5109771;28;27436;-57
2021/04/26 11:52:57;;;;;;;6.28;2.95;;;23.60;34.50;;;;;;5109826;28;27411;-57
2021/04/26 11:56:14;;;;;;;5.78;3.70;;;23.70;33.60;;;;;;5110228;28;27336;-57
2021/04/26 11:59:51;;;;;;;6.32;3.42;;;23.60;32.10;;;;;;5109793;28;27516;-57
2021/04/26 12:03:00;;;;;;;5.05;3.08;;;23.50;34.80;;;;;;5109985;28;27478;-57
2021/04/26 12:06:27;;;;;;;5.90;3.58;;;23.50;34.20;;;;;;5106094;27;27880;-57
2021/04/26 12:09:33;;;;;;;7.43;3.88;;;23.40;32.50;;;;;;5106931;28;27367;-57
2021/04/26 12:13:05;;;;;;;5.90;3.30;;;23.20;36.90;;;;;;5107036;28;27348;-57
2021/04/26 12:16:36;;;;;;;5.43;3.63;;;23.10;36.10;;;;;;5105847;28;27386;-57
2021/04/26 12:19:56;;;;;;;6.93;3.60;;;23.00;39.40;;;;;;5103482;28;27410;-57
2021/04/26 12:23:23;;;;;;;8.25;3.38;;;22.90;38.40;;;;;;5105089;28;27394;-57
2021/04/26 12:26:39;;;;;;;5.80;2.80;;;22.90;37.00;;;;;;5104836;28;27399;-57
2021/04/26 12:29:27;;;;;;;4.95;2.92;;;22.80;34.10;;;;;;5105916;28;27470;-58
2021/04/26 12:32:17;;;;;;;5.22;2.75;;;22.80;37.50;;;;;;5106590;28;27457;-57
2021/04/26 12:35:17;;;;;;;6.70;3.40;;;22.70;38.40;;;;;;5106543;28;27406;-57
2021/04/26 12:38:10;;;;;;;7.97;2.78;;;22.70;37.60;;;;;;5106678;28;26914;-57
2021/04/26 12:41:35;;;;;;;6.95;3.25;;;22.70;35.80;;;;;;5106660;28;27412;-57
2021/04/26 12:44:53;;;;;;;5.68;3.13;;;22.70;36.90;;;;;;5106651;28;27415;-57
2021/04/26 12:48:02;;;;;;;3.97;2.72;;;22.60;39.30;;;;;;5105963;28;27458;-57
2021/04/26 12:50:49;;;;;;;5.50;2.80;;;22.60;34.20;;;;;;5106394;28;27418;-57
2021/04/26 12:54:09;;;;;;;4.03;2.90;;;22.50;40.10;;;;;;5106271;28;27414;-57
2021/04/26 12:57:44;;;;;;;3.45;2.22;;;22.40;39.70;;;;;;5106452;28;27856;-57
2021/04/26 13:01:13;;;;;;;5.78;2.70;;;22.40;39.00;;;;;;5106123;28;27430;-57
2021/04/26 13:04:40;;;;;;;5.10;3.13;;;22.40;35.90;;;;;;5106457;28;27437;-57
2021/04/26 13:07:45;;;;;;;6.53;2.83;;;22.30;37.00;;;;;;5105602;28;27541;-57
2021/04/26 13:10:37;;;;;;;5.35;3.03;;;22.20;40.70;;;;;;5104810;28;27902;-57
2021/04/26 13:13:53;;;;;;;5.38;2.58;;;22.30;40.40;;;;;;5105517;28;27372;-57
2021/04/26 13:17:19;;;;;;;4.22;2.90;;;22.40;42.80;;;;;;5104677;27;27381;-57
2021/04/26 13:20:40;;;;;;;4.57;2.70;;;22.60;42.00;;;;;;5105867;28;26903;-57
2021/04/26 13:24:07;;;;;;;3.95;2.65;;;22.70;40.60;;;;;;5102450;28;27412;-57
2021/04/26 13:27:42;;;;;;;2.40;2.20;;;22.80;40.70;;;;;;5102392;28;27409;-57
2021/04/26 13:30:40;;;;;;;4.65;2.58;;;22.90;40.90;;;;;;5104639;28;27379;-56
2021/04/26 13:33:25;;;;;;;3.63;2.50;;;22.80;35.70;;;;;;5105630;28;27461;-57
2021/04/26 13:36:30;;;;;;;5.97;2.60;;;22.70;36.20;;;;;;5105168;28;27445;-57
2021/04/26 13:39:27;;;;;;;4.63;2.42;;;22.70;42.90;;;;;;5101378;28;27452;-56
2021/04/26 13:42:53;;;;;;;7.95;2.53;;;22.70;40.10;;;;;;5105333;28;27513;-56
2021/04/26 13:46:19;;;;;;;4.03;3.22;;;22.90;40.50;;;;;;5104857;28;27549;-56
2021/04/26 13:49:27;;;;;;;4.25;2.20;;;22.90;37.80;;;;;;5104529;28;27374;-56
2021/04/26 13:52:40;;;;;;;4.63;2.45;;;22.90;40.90;;;;;;5103918;28;27340;-57
2021/04/26 13:56:07;;;;;;;5.57;2.97;;;23.00;33.30;;;;;;5105574;28;27332;-56
2021/04/26 13:59:41;;;;;;;8.63;3.15;;;22.90;35.30;;;;;;5105554;28;27398;-56
2021/04/26 14:03:06;;;;;;;3.97;2.30;;;22.80;34.90;;;;;;5105111;28;27428;-56
2021/04/26 14:05:59;;;;;;;3.33;2.13;;;22.70;39.40;;;;;;5105058;28;27387;-56
2021/04/26 14:09:27;;;;;;;6.78;3.17;;;22.70;33.70;;;;;;5105115;28;27385;-57
2021/04/26 14:12:46;;;;;;;5.25;2.92;;;22.70;38.00;;;;;;5105012;28;27349;-56
2021/04/26 14:16:13;;;;;;;4.45;2.47;;;22.60;35.80;;;;;;5104897;28;27419;-56
2021/04/26 14:19:47;;;;;;;5.35;2.63;;;22.40;32.90;;;;;;5104851;28;27480;-56
2021/04/26 14:23:20;;;;;;;4.00;2.22;;;22.20;37.10;;;;;;5104670;28;27399;-56
2021/04/26 14:27:26;;;;;;;4.40;2.70;;;22.20;41.40;;;;;;5103857;28;27445;-56
2021/04/26 14:30:52;;;;;;;2.90;2.30;;;22.10;39.00;;;;;;5105112;28;27324;-56
2021/04/26 14:34:20;;;;;;;5.63;2.97;;;22.20;41.70;;;;;;5101380;28;27600;-56
2021/04/26 14:37:57;;;;;;;9.30;2.63;;;22.20;40.90;;;;;;5101454;28;27320;-56
2021/04/26 14:41:01;;;;;;;5.85;3.15;;;22.20;42.00;;;;;;5104527;28;27418;-56
2021/04/26 14:44:28;;;;;;;8.75;2.63;;;22.20;34.80;;;;;;5104502;28;27340;-56
2021/04/26 14:47:56;;;;;;;4.40;2.80;;;22.10;38.90;;;;;;5104489;28;27411;-56
2021/04/26 14:51:30;;;;;;;4.82;2.58;;;22.00;38.70;;;;;;5104528;28;27398;-56
2021/04/26 14:55:15;;;;;;;3.40;2.42;;;22.00;42.50;;;;;;5101554;28;27303;-56
2021/04/26 14:58:42;;;;;;;7.30;3.38;;;21.90;40.30;;;;;;5103975;28;27417;-56
2021/04/26 15:02:08;;;;;;;5.55;2.63;;;21.90;39.80;;;;;;5100794;28;27485;-56
2021/04/26 15:05:25;;;;;;;5.90;2.65;;;22.00;38.60;;;;;;5103341;28;27425;-56
2021/04/26 15:08:36;;;;;;;5.85;2.42;;;22.20;37.20;;;;;;5104576;28;27434;-55
2021/04/26 15:11:34;;;;;;;3.70;2.70;;;22.30;38.30;;;;;;5103883;28;27445;-55
2021/04/26 15:14:40;;;;;;;4.13;2.70;;;22.40;38.00;;;;;;5104113;28;27589;-56
2021/04/26 15:18:06;;;;;;;3.97;2.40;;;22.50;37.40;;;;;;5103898;28;27388;-56
2021/04/26 15:21:31;;;;;;;3.42;2.40;;;22.50;37.40;;;;;;5104105;28;27391;-56
2021/04/26 15:24:44;;;;;;;4.10;2.78;;;22.50;33.60;;;;;;5103577;28;27339;-56
2021/04/26 15:27:58;;;;;;;3.25;2.58;;;22.40;36.90;;;;;;5103408;28;27340;-56
2021/04/26 15:31:25;;;;;;;4.15;2.55;;;22.30;35.00;;;;;;5104113;28;27427;-55
2021/04/26 15:34:51;;;;;;;2.75;2.17;;;22.20;38.70;;;;;;5103950;28;27344;-55
2021/04/26 15:38:06;;;;;;;6.05;2.78;;;22.20;37.70;;;;;;5103651;28;27332;-56
2021/04/26 15:41:17;;;;;;;4.22;2.20;;;22.20;34.70;;;;;;5106796;28;27457;-56
2021/04/26 15:44:04;;;;;;;6.10;2.38;;;22.10;39.10;;;;;;5107307;28;27462;-55
2021/04/26 15:47:31;;;;;;;4.65;2.45;;;22.10;36.60;;;;;;5106867;28;27449;-55
2021/04/26 15:51:27;;;;;;;4.80;2.38;;;22.10;38.90;;;;;;5103995;28;27853;-56
2021/04/26 15:55:08;;;;;;;4.78;2.95;;;22.10;37.10;;;;;;5104491;28;27383;-54
2021/04/26 15:58:35;;;;;;;4.18;2.42;;;22.10;35.70;;;;;;5107385;28;27419;-54
2021/04/26 16:01:45;;;;;;;4.25;2.42;;;22.00;36.30;;;;;;5106962;28;27385;-56
2021/04/26 16:04:51;;;;;;;3.28;2.35;;;22.00;37.90;;;;;;5106861;28;27451;-55
2021/04/26 16:07:48;;;;;;;4.93;2.97;;;22.00;38.10;;;;;;5104939;28;27580;-55
2021/04/26 16:10:47;;;;;;;6.18;2.47;;;21.90;36.30;;;;;;5107305;28;27407;-55
2021/04/26 16:13:53;;;;;;;6.85;2.63;;;21.90;38.50;;;;;;5106973;28;27381;-55
2021/04/26 16:17:00;;;;;;;3.90;2.50;;;21.90;35.80;;;;;;5106213;28;27786;-55
2021/04/26 16:20:22;;;;;;;4.13;2.75;;;21.90;34.20;;;;;;5106128;28;27484;-55
2021/04/26 16:23:50;;;;;;;5.80;3.00;;;22.00;37.40;;;;;;5106074;28;27332;-55
2021/04/26 16:26:47;;;;;;;7.60;4.00;;;22.00;34.10;;;;;;5106356;28;27549;-55
2021/04/26 16:29:58;;;;;;;7.18;3.80;;;22.10;34.90;;;;;;5106586;28;27462;-54
2021/04/26 16:33:31;;;;;;;10.38;3.80;;;22.10;33.90;;;;;;5103377;28;27446;-55
2021/04/26 16:37:17;;;;;;;8.90;3.67;;;22.10;34.00;;;;;;5103091;28;27376;-55
2021/04/26 16:40:30;;;;;;;10.75;3.65;;;22.00;32.70;;;;;;5106033;28;27388;-54
2021/04/26 16:44:00;;;;;;;6.53;3.22;;;21.90;34.00;;;;;;5106419;28;27918;-55
2021/04/26 16:47:14;;;;;;;11.65;3.63;;;21.90;34.60;;;;;;5106277;28;27473;-54
2021/04/26 16:50:40;;;;;;;6.80;3.08;;;21.90;35.80;;;;;;5086437;28;27601;-53
2021/04/26 16:53:51;;;;;;;4.25;2.70;;;21.80;36.30;;;;;;5106503;28;27411;-55
2021/04/26 16:56:53;;;;;;;6.03;3.10;;;21.70;34.50;;;;;;5106133;28;27297;-54
2021/04/26 17:00:27;;;;;;;4.15;2.88;;;21.60;33.70;;;;;;5102437;28;27483;-55
2021/04/26 17:03:54;;;;;;;5.80;2.70;;;21.60;33.60;;;;;;5106136;28;27485;-53
2021/04/26 17:07:30;;;;;;;4.95;3.10;;;21.50;33.00;;;;;;5102680;28;27417;-54
2021/04/26 17:10:59;;;;;;;5.82;2.50;;;21.30;33.00;;;;;;5105904;28;27414;-50